createdAt,value
2022-10-31T00:00:15.956Z,13.07
2022-10-31T00:02:42.547Z,12.70
2022-10-31T00:05:09.328Z,12.23
2022-10-31T00:07:35.953Z,11.82
2022-10-31T00:10:02.481Z,12.75
2022-10-31T00:12:28.987Z,13.82
2022-10-31T00:14:55.492Z,14.65
2022-10-31T00:17:22.043Z,12.57
2022-10-31T00:19:48.658Z,12.90
2022-10-31T00:22:15.166Z,15.60
2022-10-31T00:24:41.721Z,14.23
2022-10-31T00:27:08.240Z,16.70
2022-10-31T00:29:34.772Z,14.23
2022-10-31T00:32:01.281Z,14.63
2022-10-31T00:34:28.003Z,13.73
2022-10-31T00:36:54.543Z,14.20
2022-10-31T00:39:21.052Z,13.23
2022-10-31T00:41:47.584Z,12.98
2022-10-31T00:44:14.126Z,14.55
2022-10-31T00:46:40.611Z,13.90
2022-10-31T00:49:07.130Z,13.75
2022-10-31T00:51:33.741Z,13.32
2022-10-31T00:54:00.489Z,13.27
2022-10-31T00:56:27.105Z,12.68
2022-10-31T00:58:54.393Z,12.68
2022-10-31T01:01:21.292Z,12.65
2022-10-31T01:03:49.479Z,12.77
2022-10-31T01:06:16.884Z,12.43
2022-10-31T01:08:44.020Z,11.50
2022-10-31T01:11:23.559Z,13.30
2022-10-31T01:13:54.433Z,12.68
2022-10-31T01:16:23.370Z,12.07
2022-10-31T01:18:50.736Z,11.95
2022-10-31T01:21:19.841Z,13.73
2022-10-31T01:23:48.896Z,12.32
2022-10-31T01:26:18.357Z,12.52
2022-10-31T01:28:50.706Z,13.32
2022-10-31T01:31:19.021Z,14.90
2022-10-31T01:33:45.675Z,15.43
2022-10-31T01:36:23.953Z,14.55
2022-10-31T01:38:52.408Z,15.48
2022-10-31T01:41:22.046Z,14.02
2022-10-31T01:43:50.473Z,13.23
2022-10-31T01:46:20.776Z,13.07
2022-10-31T01:48:47.798Z,13.93
2022-10-31T01:51:15.623Z,13.35
2022-10-31T01:53:43.255Z,12.85
2022-10-31T01:56:09.807Z,12.15
2022-10-31T01:58:37.958Z,12.40
2022-10-31T02:01:07.917Z,13.27
2022-10-31T02:03:35.831Z,11.02
2022-10-31T02:06:04.187Z,12.20
2022-10-31T02:08:32.162Z,13.98
2022-10-31T02:10:59.344Z,12.88
2022-10-31T02:15:59.493Z,13.60
2022-10-31T02:18:28.355Z,12.95
2022-10-31T02:21:31.241Z,12.40
2022-10-31T02:24:16.434Z,12.50
2022-10-31T02:27:03.656Z,13.40
2022-10-31T02:30:01.992Z,14.70
2022-10-31T02:32:38.812Z,13.38
2022-10-31T02:35:27.290Z,13.82
2022-10-31T02:38:07.152Z,13.05
2022-10-31T02:40:42.028Z,14.25
2022-10-31T02:43:30.967Z,12.30
2022-10-31T02:46:11.630Z,11.73
2022-10-31T02:48:40.269Z,12.65
2022-10-31T02:51:08.262Z,12.65
2022-10-31T02:53:36.830Z,11.40
2022-10-31T02:56:13.223Z,11.73
2022-10-31T02:59:01.569Z,11.80
2022-10-31T03:01:46.992Z,11.75
2022-10-31T03:04:32.989Z,11.52
2022-10-31T03:07:02.430Z,11.98
2022-10-31T03:09:46.564Z,10.80
2022-10-31T03:12:29.362Z,12.02
2022-10-31T03:15:06.482Z,14.23
2022-10-31T03:17:37.757Z,14.60
2022-10-31T03:20:05.417Z,12.65
2022-10-31T03:22:34.017Z,12.98
2022-10-31T03:25:03.136Z,11.50
2022-10-31T03:27:33.080Z,10.77
2022-10-31T03:30:02.204Z,10.50
2022-10-31T03:32:31.848Z,10.73
2022-10-31T03:35:00.614Z,11.25
2022-10-31T03:37:28.945Z,10.23
2022-10-31T03:39:56.452Z,10.35
2022-10-31T03:42:30.417Z,9.85
2022-10-31T03:45:18.888Z,9.15
2022-10-31T03:47:45.573Z,8.63
2022-10-31T03:50:14.578Z,9.43
2022-10-31T03:52:48.477Z,10.15
2022-10-31T03:55:21.176Z,10.35
2022-10-31T03:58:01.835Z,10.43
2022-10-31T04:00:28.920Z,11.02
2022-10-31T04:03:05.423Z,13.18
2022-10-31T04:05:34.417Z,11.60
2022-10-31T04:08:05.343Z,14.43
2022-10-31T04:10:33.598Z,11.55
2022-10-31T04:13:07.098Z,13.65
2022-10-31T04:15:44.160Z,13.00
2022-10-31T04:18:10.750Z,11.63
2022-10-31T04:20:39.436Z,11.25
2022-10-31T04:23:19.436Z,11.52
2022-10-31T04:25:46.120Z,11.90
2022-10-31T04:28:12.858Z,12.02
2022-10-31T04:30:39.423Z,11.20
2022-10-31T04:33:05.934Z,10.60
2022-10-31T04:35:33.412Z,9.77
2022-10-31T04:37:59.966Z,9.88
2022-10-31T04:40:26.556Z,10.63
2022-10-31T04:43:13.134Z,7.82
2022-10-31T04:45:42.705Z,7.00
2022-10-31T04:48:09.546Z,8.10
2022-10-31T04:50:37.159Z,8.60
2022-10-31T04:53:03.706Z,9.18
2022-10-31T04:55:37.988Z,12.70
2022-10-31T04:58:24.763Z,10.60
2022-10-31T05:00:55.839Z,10.52
2022-10-31T05:03:22.888Z,13.35
2022-10-31T05:05:49.471Z,12.48
2022-10-31T05:08:16.615Z,13.15
2022-10-31T05:10:43.181Z,13.20
2022-10-31T05:13:09.854Z,13.30
2022-10-31T05:15:59.217Z,12.68
2022-10-31T05:18:44.053Z,12.65
2022-10-31T05:21:36.560Z,12.95
2022-10-31T05:24:04.157Z,11.15
2022-10-31T05:26:32.196Z,10.80
2022-10-31T05:28:59.516Z,11.88
2022-10-31T05:31:26.135Z,11.45
2022-10-31T05:33:53.924Z,13.15
2022-10-31T05:36:38.935Z,13.85
2022-10-31T05:39:21.806Z,15.90
2022-10-31T05:41:53.189Z,13.75
2022-10-31T05:44:22.572Z,14.48
2022-10-31T05:47:18.308Z,15.15
2022-10-31T05:50:04.476Z,15.05
2022-10-31T05:52:46.778Z,16.02
2022-10-31T05:55:24.667Z,14.75
2022-10-31T05:58:03.815Z,13.95
2022-10-31T06:00:31.146Z,16.35
2022-10-31T06:05:50.641Z,15.18
2022-10-31T06:08:20.729Z,13.32
2022-10-31T06:10:47.409Z,12.80
2022-10-31T06:13:18.662Z,16.90
2022-10-31T06:15:50.615Z,16.20
2022-10-31T06:18:20.925Z,15.55
2022-10-31T06:20:49.992Z,14.52
2022-10-31T06:23:16.608Z,15.40
2022-10-31T06:25:49.865Z,15.25
2022-10-31T06:28:17.040Z,15.10
2022-10-31T06:30:56.767Z,16.52
2022-10-31T06:33:23.833Z,17.98
2022-10-31T06:35:56.528Z,14.10
2022-10-31T06:38:23.916Z,19.50
2022-10-31T06:40:50.476Z,16.67
2022-10-31T06:43:22.265Z,13.60
2022-10-31T06:45:50.767Z,12.52
2022-10-31T06:51:18.017Z,13.18
2022-10-31T06:53:44.661Z,14.45
2022-10-31T06:56:12.954Z,14.35
2022-10-31T06:58:52.616Z,14.23
2022-10-31T07:01:39.172Z,14.82
2022-10-31T07:04:07.191Z,12.57
2022-10-31T07:06:35.560Z,12.32
2022-10-31T07:09:02.097Z,12.48
2022-10-31T07:11:28.648Z,12.25
2022-10-31T07:13:57.169Z,13.75
2022-10-31T07:16:24.104Z,12.20
2022-10-31T07:18:51.119Z,11.52
2022-10-31T07:21:17.693Z,12.18
2022-10-31T07:23:44.286Z,11.23
2022-10-31T07:26:36.747Z,11.60
2022-10-31T07:29:03.294Z,11.82
2022-10-31T07:31:29.907Z,12.07
2022-10-31T07:34:01.953Z,12.18
2022-10-31T07:36:28.512Z,12.65
2022-10-31T07:38:59.948Z,13.02
2022-10-31T07:41:26.578Z,12.63
2022-10-31T07:46:44.035Z,13.00
2022-10-31T07:49:29.057Z,16.55
2022-10-31T07:52:27.837Z,14.82
2022-10-31T07:55:13.619Z,14.68
2022-10-31T07:57:40.239Z,15.38
2022-10-31T08:00:08.957Z,15.70
2022-10-31T08:02:41.437Z,15.30
2022-10-31T08:05:31.489Z,16.02
2022-10-31T08:08:31.264Z,16.30
2022-10-31T08:11:00.121Z,17.13
2022-10-31T08:13:26.809Z,16.77
2022-10-31T08:15:54.771Z,17.50
2022-10-31T08:18:25.644Z,19.45
2022-10-31T08:20:52.630Z,20.92
2022-10-31T08:23:19.229Z,22.00
2022-10-31T08:25:47.839Z,26.02
2022-10-31T08:28:14.979Z,23.88
2022-10-31T08:30:43.897Z,27.35
2022-10-31T08:33:39.769Z,26.25
2022-10-31T08:36:25.041Z,26.70
2022-10-31T08:39:02.064Z,21.77
2022-10-31T08:41:30.767Z,26.52
2022-10-31T08:43:58.690Z,27.92
2022-10-31T08:46:25.431Z,25.60
2022-10-31T08:48:52.045Z,24.92
2022-10-31T08:51:19.623Z,25.25
2022-10-31T08:53:48.295Z,26.42
2022-10-31T08:56:33.253Z,25.88
2022-10-31T08:59:02.409Z,23.42
2022-10-31T09:01:44.039Z,21.80
2022-10-31T09:04:10.708Z,24.98
2022-10-31T09:06:38.141Z,23.90
2022-10-31T09:09:04.771Z,23.60
2022-10-31T09:11:32.119Z,25.55
2022-10-31T09:14:18.716Z,24.25
2022-10-31T09:17:03.658Z,26.02
2022-10-31T09:19:47.139Z,23.23
2022-10-31T09:22:13.712Z,21.95
2022-10-31T09:24:40.217Z,23.52
2022-10-31T09:27:06.898Z,22.95
2022-10-31T09:29:36.411Z,21.35
2022-10-31T09:32:04.846Z,23.95
2022-10-31T09:34:37.438Z,24.23
2022-10-31T09:37:09.953Z,22.83
2022-10-31T09:39:36.550Z,17.83
2022-10-31T09:42:32.711Z,21.38
2022-10-31T09:45:13.328Z,24.13
2022-10-31T09:48:11.471Z,23.42
2022-10-31T09:51:11.065Z,22.45
2022-10-31T09:54:13.689Z,23.17
2022-10-31T09:56:40.345Z,24.50
2022-10-31T09:59:13.343Z,23.70
2022-10-31T10:02:02.411Z,23.00
2022-10-31T10:04:39.047Z,25.73
2022-10-31T10:07:27.780Z,24.53
2022-10-31T10:10:43.183Z,24.17
2022-10-31T10:13:42.637Z,25.08
2022-10-31T10:16:24.212Z,24.88
2022-10-31T10:19:01.180Z,24.42
2022-10-31T10:21:34.823Z,23.83
2022-10-31T10:26:59.620Z,22.85
2022-10-31T10:29:48.728Z,23.60
2022-10-31T10:32:22.653Z,22.48
2022-10-31T10:34:52.647Z,21.10
2022-10-31T10:37:37.624Z,22.00
2022-10-31T10:40:15.268Z,22.17
2022-10-31T10:43:01.966Z,20.80
2022-10-31T10:45:47.183Z,18.10
2022-10-31T10:48:35.859Z,19.42
2022-10-31T10:51:02.659Z,20.23
2022-10-31T10:54:05.206Z,19.92
2022-10-31T10:56:41.795Z,19.92
2022-10-31T10:59:12.592Z,17.63
2022-10-31T11:01:40.272Z,19.20
2022-10-31T11:04:22.756Z,18.20
2022-10-31T11:06:58.526Z,18.45
2022-10-31T11:09:25.020Z,18.15
2022-10-31T11:11:51.695Z,18.20
2022-10-31T11:17:16.125Z,16.25
2022-10-31T11:19:42.702Z,17.15
2022-10-31T11:22:16.788Z,17.58
2022-10-31T11:24:43.475Z,16.67
2022-10-31T11:27:21.204Z,17.00
2022-10-31T11:29:47.772Z,16.80
2022-10-31T11:32:26.126Z,17.55
2022-10-31T11:34:55.641Z,16.40
2022-10-31T11:37:24.657Z,16.88
2022-10-31T11:40:05.274Z,17.58
2022-10-31T11:42:40.379Z,16.88
2022-10-31T11:45:34.630Z,16.92
2022-10-31T11:50:36.884Z,16.10
2022-10-31T11:53:04.067Z,15.13
2022-10-31T11:55:34.309Z,13.77
2022-10-31T11:58:01.325Z,14.90
2022-10-31T12:00:41.831Z,14.07
2022-10-31T12:03:15.299Z,14.32
2022-10-31T12:05:44.108Z,14.68
2022-10-31T12:08:12.820Z,13.55
2022-10-31T12:11:02.311Z,14.35
2022-10-31T12:13:53.575Z,17.45
2022-10-31T12:16:37.382Z,15.15
2022-10-31T12:19:15.848Z,13.27
2022-10-31T12:21:45.770Z,13.57
2022-10-31T12:24:30.014Z,15.30
2022-10-31T12:27:22.624Z,15.27
2022-10-31T12:30:12.006Z,15.35
2022-10-31T12:32:53.742Z,14.65
2022-10-31T12:35:26.647Z,15.88
2022-10-31T12:38:00.846Z,14.88
2022-10-31T12:40:48.307Z,16.10
2022-10-31T12:43:42.866Z,13.68
2022-10-31T12:46:21.114Z,12.93
2022-10-31T12:49:04.601Z,12.70
2022-10-31T12:51:52.224Z,13.23
2022-10-31T12:54:44.024Z,12.20
2022-10-31T12:57:33.122Z,11.55
2022-10-31T13:00:17.120Z,10.30
2022-10-31T13:02:56.488Z,9.48
2022-10-31T13:05:31.141Z,9.50
2022-10-31T13:08:28.127Z,8.20
2022-10-31T13:11:17.537Z,8.30
2022-10-31T13:13:47.638Z,7.28
2022-10-31T13:16:23.491Z,7.05
2022-10-31T13:18:54.330Z,7.25
2022-10-31T13:21:24.652Z,7.63
2022-10-31T13:23:54.439Z,7.50
2022-10-31T13:26:38.246Z,7.25
2022-10-31T13:29:14.187Z,7.35
2022-10-31T13:31:44.109Z,9.20
2022-10-31T13:34:25.716Z,7.07
2022-10-31T13:37:18.408Z,7.00
2022-10-31T13:39:50.543Z,8.10
2022-10-31T13:42:28.464Z,7.78
2022-10-31T13:44:54.983Z,7.30
2022-10-31T13:47:28.510Z,6.97
2022-10-31T13:52:33.567Z,7.03
2022-10-31T13:55:00.121Z,7.07
2022-10-31T13:57:39.678Z,6.80
2022-10-31T14:00:22.332Z,7.05
2022-10-31T14:02:50.736Z,6.80
2022-10-31T14:05:25.609Z,7.15
2022-10-31T14:07:53.943Z,7.60
2022-10-31T14:10:25.924Z,8.05
2022-10-31T14:12:53.073Z,7.63
2022-10-31T14:15:25.334Z,7.75
2022-10-31T14:17:55.060Z,8.10
2022-10-31T14:20:43.501Z,7.28
2022-10-31T14:23:34.811Z,7.45
2022-10-31T14:26:18.550Z,7.03
2022-10-31T14:28:45.827Z,7.65
2022-10-31T14:31:42.602Z,7.45
2022-10-31T14:34:35.784Z,7.47
2022-10-31T14:37:35.721Z,8.03
2022-10-31T14:40:26.156Z,8.05
2022-10-31T14:43:24.601Z,6.78
2022-10-31T14:46:19.707Z,7.13
2022-10-31T14:49:26.108Z,6.97
2022-10-31T14:51:52.826Z,7.53
2022-10-31T14:54:24.479Z,7.18
2022-10-31T14:56:54.743Z,6.43
2022-10-31T14:59:25.536Z,6.55
2022-10-31T15:02:01.188Z,6.72
2022-10-31T15:04:33.535Z,6.32
2022-10-31T15:07:12.485Z,7.95
2022-10-31T15:09:41.694Z,7.15
2022-10-31T15:12:24.903Z,6.75
2022-10-31T15:14:52.414Z,6.97
2022-10-31T15:17:19.333Z,6.32
2022-10-31T15:19:46.374Z,6.40
2022-10-31T15:22:18.071Z,6.60
2022-10-31T15:24:45.102Z,7.45
2022-10-31T15:27:17.804Z,6.85
2022-10-31T15:29:55.725Z,7.70
2022-10-31T15:32:27.593Z,7.80
2022-10-31T15:34:55.475Z,7.72
2022-10-31T15:37:25.249Z,7.45
2022-10-31T15:39:51.860Z,8.27
2022-10-31T15:42:33.711Z,8.15
2022-10-31T15:45:07.067Z,7.72
2022-10-31T15:47:34.183Z,8.30
2022-10-31T15:50:02.061Z,8.63
2022-10-31T15:52:45.211Z,8.02
2022-10-31T15:55:21.676Z,7.40
2022-10-31T16:00:30.210Z,9.50
2022-10-31T16:03:07.016Z,10.52
2022-10-31T16:05:37.462Z,9.70
2022-10-31T16:08:04.142Z,10.95
2022-10-31T16:10:34.789Z,11.20
2022-10-31T16:13:03.530Z,11.05
2022-10-31T16:15:30.769Z,9.60
2022-10-31T16:18:01.445Z,10.32
2022-10-31T16:20:29.779Z,11.07
2022-10-31T16:22:57.972Z,10.93
2022-10-31T16:25:37.648Z,10.82
2022-10-31T16:28:05.768Z,11.23
2022-10-31T16:30:45.369Z,11.25
2022-10-31T16:33:25.196Z,12.50
2022-10-31T16:35:56.136Z,11.88
2022-10-31T16:38:30.984Z,11.90
2022-10-31T16:40:57.537Z,13.55
2022-10-31T16:43:24.418Z,14.85
2022-10-31T16:45:52.261Z,13.70
2022-10-31T16:48:24.118Z,13.23
2022-10-31T16:50:51.524Z,13.43
2022-10-31T16:53:18.509Z,14.05
2022-10-31T16:55:47.465Z,16.15
2022-10-31T16:58:17.915Z,14.95
2022-10-31T17:00:44.568Z,15.25
2022-10-31T17:03:11.620Z,16.15
2022-10-31T17:05:39.433Z,17.27
2022-10-31T17:08:06.060Z,16.75
2022-10-31T17:10:32.795Z,20.80
2022-10-31T17:13:00.087Z,16.75
2022-10-31T17:15:28.456Z,17.45
2022-10-31T17:17:55.118Z,19.70
2022-10-31T17:20:28.384Z,22.27
2022-10-31T17:22:55.731Z,20.08
2022-10-31T17:25:24.783Z,22.20
2022-10-31T17:27:51.544Z,20.00
2022-10-31T17:30:19.427Z,22.92
2022-10-31T17:32:46.992Z,22.25
2022-10-31T17:35:14.827Z,22.17
2022-10-31T17:37:42.919Z,21.38
2022-10-31T17:40:10.877Z,19.83
2022-10-31T17:42:37.455Z,21.23
2022-10-31T17:45:08.023Z,20.08
2022-10-31T17:47:35.079Z,21.27
2022-10-31T17:50:01.844Z,21.77
2022-10-31T17:52:28.375Z,21.52
2022-10-31T17:54:54.864Z,22.83
2022-10-31T17:57:21.396Z,21.75
2022-10-31T17:59:47.889Z,22.23
2022-10-31T18:02:14.534Z,21.35
2022-10-31T18:04:41.187Z,22.40
2022-10-31T18:07:07.963Z,21.63
2022-10-31T18:09:34.563Z,22.63
2022-10-31T18:12:01.054Z,20.80
2022-10-31T18:14:29.365Z,21.92
2022-10-31T18:16:55.897Z,22.80
2022-10-31T18:19:22.439Z,21.23
2022-10-31T18:21:48.958Z,21.73
2022-10-31T18:24:15.466Z,22.08
2022-10-31T18:26:42.031Z,21.17
2022-10-31T18:29:11.073Z,22.38
2022-10-31T18:31:37.633Z,22.00
2022-10-31T18:34:04.299Z,21.15
2022-10-31T18:36:30.803Z,22.42
2022-10-31T18:38:57.308Z,21.73
2022-10-31T18:41:24.082Z,21.77
2022-10-31T18:43:51.309Z,20.80
2022-10-31T18:46:18.572Z,20.67
2022-10-31T18:48:45.214Z,22.02
2022-10-31T18:51:14.306Z,21.10
2022-10-31T18:53:40.855Z,19.63
2022-10-31T18:56:08.699Z,20.67
2022-10-31T18:58:35.740Z,21.05
2022-10-31T19:01:07.332Z,20.70
2022-10-31T19:03:34.317Z,20.38
2022-10-31T19:06:00.855Z,20.38
2022-10-31T19:10:55.663Z,20.15
2022-10-31T19:13:22.289Z,19.55
2022-10-31T19:15:48.801Z,20.30
2022-10-31T19:18:15.327Z,20.55
2022-10-31T19:20:41.812Z,19.00
2022-10-31T19:23:08.319Z,19.88
2022-10-31T19:25:34.915Z,20.58
2022-10-31T19:28:01.657Z,19.08
2022-10-31T19:30:28.392Z,19.88
2022-10-31T19:32:55.882Z,21.42
2022-10-31T19:35:22.404Z,20.10
2022-10-31T19:37:48.910Z,20.10
2022-10-31T19:40:15.484Z,19.55
2022-10-31T19:42:41.988Z,20.13
2022-10-31T19:45:08.748Z,20.25
2022-10-31T19:47:35.285Z,19.77
2022-10-31T19:50:04.819Z,20.25
2022-10-31T19:52:35.511Z,21.02
2022-10-31T19:55:02.281Z,18.40
2022-10-31T19:57:48.918Z,18.77
2022-10-31T20:00:15.649Z,18.48
2022-10-31T20:02:42.145Z,18.85
2022-10-31T20:05:09.088Z,17.40
2022-10-31T20:07:35.990Z,17.55
2022-10-31T20:10:02.524Z,17.65
2022-10-31T20:12:29.004Z,18.38
2022-10-31T20:14:55.517Z,17.92
2022-10-31T20:17:22.041Z,18.08
2022-10-31T20:19:48.629Z,17.50
2022-10-31T20:22:15.232Z,17.92
2022-10-31T20:24:41.724Z,17.38
2022-10-31T20:27:08.238Z,17.08
2022-10-31T20:29:34.813Z,17.77
2022-10-31T20:32:01.319Z,17.10
2022-10-31T20:34:27.823Z,17.88
2022-10-31T20:36:54.328Z,17.15
2022-10-31T20:39:20.836Z,17.25
2022-10-31T20:41:48.525Z,17.05
2022-10-31T20:44:15.219Z,17.02
2022-10-31T20:46:41.705Z,18.10
2022-10-31T20:49:08.305Z,17.77
2022-10-31T20:51:34.826Z,17.75
2022-10-31T20:54:01.352Z,17.13
2022-10-31T20:56:28.551Z,17.23
2022-10-31T20:58:56.246Z,16.98
2022-10-31T21:01:30.897Z,17.88
2022-10-31T21:03:58.596Z,17.77
2022-10-31T21:06:25.674Z,17.08
2022-10-31T21:08:52.427Z,16.83
2022-10-31T21:11:21.163Z,17.83
2022-10-31T21:13:48.513Z,17.42
2022-10-31T21:16:23.740Z,17.08
2022-10-31T21:18:50.747Z,17.52
2022-10-31T21:21:32.151Z,17.52
2022-10-31T21:24:08.361Z,16.70
2022-10-31T21:26:37.888Z,17.30
2022-10-31T21:29:05.378Z,17.13
2022-10-31T21:31:32.240Z,17.08
2022-10-31T21:33:58.764Z,17.40
2022-10-31T21:36:26.154Z,17.95
2022-10-31T21:38:53.553Z,17.70
2022-10-31T21:41:20.628Z,18.15
2022-10-31T21:43:49.068Z,17.77
2022-10-31T21:46:18.054Z,16.88
2022-10-31T21:48:45.021Z,17.77
2022-10-31T21:51:32.465Z,18.00
2022-10-31T21:54:17.573Z,17.83
2022-10-31T21:56:44.391Z,17.00
2022-10-31T21:59:11.033Z,17.20
2022-10-31T22:01:37.717Z,17.95
2022-10-31T22:04:04.759Z,17.33
2022-10-31T22:06:31.290Z,17.48
2022-10-31T22:08:59.258Z,16.45
2022-10-31T22:11:26.082Z,17.25
2022-10-31T22:13:52.563Z,16.63
2022-10-31T22:16:21.168Z,16.48
2022-10-31T22:18:51.214Z,15.38
2022-10-31T22:21:20.494Z,16.70
2022-10-31T22:23:51.966Z,16.65
2022-10-31T22:26:18.582Z,17.25
2022-10-31T22:28:47.208Z,15.20
2022-10-31T22:31:16.450Z,15.95
2022-10-31T22:33:43.508Z,16.38
2022-10-31T22:36:12.067Z,15.50
2022-10-31T22:38:40.231Z,15.93
2022-10-31T22:41:08.459Z,16.95
2022-10-31T22:43:34.971Z,15.90
2022-10-31T22:46:04.823Z,15.48
2022-10-31T22:48:35.090Z,16.15
2022-10-31T22:51:05.719Z,16.42
2022-10-31T22:53:33.725Z,15.60
2022-10-31T22:56:00.261Z,15.75
2022-10-31T22:58:28.666Z,15.88
2022-10-31T23:00:55.194Z,16.35
2022-10-31T23:03:22.956Z,15.55
2022-10-31T23:05:59.726Z,15.70
2022-10-31T23:08:27.018Z,16.08
2022-10-31T23:10:53.674Z,15.18
2022-10-31T23:13:39.380Z,15.35
2022-10-31T23:16:09.858Z,14.65
2022-10-31T23:18:49.651Z,14.55
2022-10-31T23:21:32.641Z,15.82
2022-10-31T23:23:59.248Z,15.23
2022-10-31T23:26:44.091Z,14.75
2022-10-31T23:29:10.627Z,14.75
2022-10-31T23:31:37.164Z,14.30
2022-10-31T23:34:03.716Z,14.90
2022-10-31T23:36:30.215Z,14.63
2022-10-31T23:38:56.704Z,14.75
2022-10-31T23:41:23.650Z,14.57
2022-10-31T23:43:50.152Z,14.63
2022-10-31T23:46:16.678Z,14.50
2022-10-31T23:48:43.222Z,13.93
2022-10-31T23:51:09.721Z,14.50
2022-10-31T23:56:08.010Z,14.45
2022-10-31T23:58:34.513Z,13.82
